Time;durP1;ratioP1;P1;durP2;ratioP2;P2;SDS_P1;SDS_P2;PMS_P1;PMS_P2;Temp;Humidity;BMP_temperature;BMP_pressure;BME280_temperature;BME280_humidity;BME280_pressure;Samples;Min_cycle;Max_cycle;Signal;HPM_P1;HPM_P2
2021/03/05 00:00:22;;;;;;;8.85;4.78;;;4.50;79.10;;;;;;2073616;28;20412;-80
2021/03/05 00:01:23;;;;;;;8.50;4.93;;;4.50;79.20;;;;;;2080274;28;20021;-80
2021/03/05 00:02:23;;;;;;;9.63;5.13;;;4.50;79.30;;;;;;2080842;28;20043;-80
2021/03/05 00:03:24;;;;;;;8.50;4.88;;;4.50;79.40;;;;;;2074418;28;20041;-80
2021/03/05 00:04:24;;;;;;;8.65;5.20;;;4.50;79.40;;;;;;2074210;28;20484;-81
2021/03/05 00:05:25;;;;;;;10.15;5.10;;;4.50;79.40;;;;;;2071258;28;20060;-81
2021/03/05 00:06:25;;;;;;;10.52;5.72;;;4.50;79.50;;;;;;2067285;28;20039;-81
2021/03/05 00:07:26;;;;;;;9.10;5.50;;;4.50;79.50;;;;;;2064274;28;20081;-81
2021/03/05 00:08:27;;;;;;;9.85;5.30;;;4.50;79.50;;;;;;2056618;28;20126;-81
2021/03/05 00:09:27;;;;;;;10.00;5.85;;;4.40;79.50;;;;;;2072995;28;20030;-81
2021/03/05 00:10:31;;;;;;;11.65;6.22;;;4.40;79.60;;;;;;2064155;28;20427;-80
2021/03/05 00:11:31;;;;;;;9.88;5.93;;;4.40;79.60;;;;;;2057664;28;20026;-81
2021/03/05 00:12:32;;;;;;;10.88;6.18;;;4.40;79.70;;;;;;2073526;28;20022;-80
2021/03/05 00:13:33;;;;;;;9.55;5.90;;;4.40;79.70;;;;;;2077520;28;20369;-80
2021/03/05 00:14:33;;;;;;;9.98;5.90;;;4.40;79.70;;;;;;2069253;28;20030;-81
2021/03/05 00:15:37;;;;;;;10.60;6.50;;;4.40;79.80;;;;;;2070880;28;20030;-80
2021/03/05 00:16:38;;;;;;;11.77;6.35;;;4.40;79.80;;;;;;2079356;28;20025;-81
2021/03/05 00:17:39;;;;;;;12.38;6.35;;;4.40;79.80;;;;;;2077382;28;20064;-80
2021/03/05 00:18:40;;;;;;;10.00;6.32;;;4.40;79.90;;;;;;2072731;28;20030;-80
2021/03/05 00:19:41;;;;;;;11.23;7.15;;;4.40;79.80;;;;;;2076781;28;20037;-80
2021/03/05 00:20:45;;;;;;;9.00;5.72;;;4.40;79.90;;;;;;2073246;28;20138;-80
2021/03/05 00:21:45;;;;;;;8.90;5.90;;;4.30;79.90;;;;;;2065573;28;20058;-80
2021/03/05 00:22:46;;;;;;;10.93;5.90;;;4.30;80.50;;;;;;2071676;28;20519;-82
2021/03/05 00:23:47;;;;;;;9.80;6.18;;;4.30;79.90;;;;;;2056757;28;20159;-80
2021/03/05 00:24:47;;;;;;;9.95;6.05;;;4.40;80.00;;;;;;2056798;28;20047;-81
2021/03/05 00:25:49;;;;;;;9.02;5.82;;;4.30;79.90;;;;;;2056612;28;20525;-80
2021/03/05 00:26:50;;;;;;;11.32;5.97;;;4.30;80.00;;;;;;2070586;28;20036;-80
2021/03/05 00:27:51;;;;;;;9.70;5.97;;;4.30;79.90;;;;;;2067672;28;20026;-81
2021/03/05 00:28:51;;;;;;;9.38;5.43;;;4.30;79.90;;;;;;2072417;28;20128;-81
2021/03/05 00:29:52;;;;;;;9.10;5.47;;;4.30;80.00;;;;;;2072286;28;20424;-80
2021/03/05 00:30:53;;;;;;;10.63;6.25;;;4.30;80.00;;;;;;2072150;28;20428;-80
2021/03/05 00:31:53;;;;;;;10.63;5.93;;;4.30;80.00;;;;;;2081384;28;20025;-81
2021/03/05 00:32:54;;;;;;;9.85;5.95;;;4.30;80.00;;;;;;2079811;28;20029;-82
2021/03/05 00:33:55;;;;;;;10.57;6.57;;;4.30;80.10;;;;;;2075543;28;20036;-81
2021/03/05 00:34:55;;;;;;;9.90;6.10;;;4.30;80.10;;;;;;2077671;28;20029;-81
2021/03/05 00:35:56;;;;;;;11.98;7.13;;;4.30;80.60;;;;;;2080951;28;20030;-81
2021/03/05 00:36:57;;;;;;;11.35;6.57;;;4.30;80.10;;;;;;2072752;28;20034;-81
2021/03/05 00:37:57;;;;;;;12.23;6.28;;;4.30;80.10;;;;;;2070656;28;20109;-81
2021/03/05 00:38:58;;;;;;;10.20;5.75;;;4.30;80.10;;;;;;2064322;28;20102;-82
2021/03/05 00:39:59;;;;;;;11.38;6.30;;;4.30;80.10;;;;;;2057140;28;20122;-83
2021/03/05 00:40:59;;;;;;;10.25;6.35;;;4.30;80.10;;;;;;2064901;28;20404;-83
2021/03/05 00:42:00;;;;;;;10.75;6.07;;;4.30;80.10;;;;;;2073909;28;20061;-83
2021/03/05 00:43:01;;;;;;;9.18;5.72;;;4.30;80.10;;;;;;2057846;28;20031;-83
2021/03/05 00:44:05;;;;;;;9.05;5.82;;;4.30;80.10;;;;;;2065806;28;20029;-83
2021/03/05 00:45:07;;;;;;;10.30;5.45;;;4.30;80.10;;;;;;2065468;28;20029;-82
2021/03/05 00:46:08;;;;;;;9.88;5.80;;;4.30;80.10;;;;;;2066171;28;20031;-81
2021/03/05 00:47:08;;;;;;;10.32;5.60;;;4.30;80.10;;;;;;2072080;28;20038;-82
2021/03/05 00:48:09;;;;;;;8.13;5.30;;;4.30;80.00;;;;;;2063555;28;20113;-83
2021/03/05 00:49:10;;;;;;;9.88;5.55;;;4.30;80.00;;;;;;2056151;28;20027;-83
2021/03/05 00:50:13;;;;;;;9.18;5.45;;;4.30;80.00;;;;;;2064508;28;20054;-82
2021/03/05 00:51:13;;;;;;;9.52;5.65;;;4.30;80.00;;;;;;2083297;28;20547;-81
2021/03/05 00:52:14;;;;;;;9.90;5.80;;;4.30;79.90;;;;;;2072412;28;20026;-82
2021/03/05 00:53:15;;;;;;;8.45;5.15;;;4.30;79.90;;;;;;2072371;28;20045;-82
2021/03/05 00:54:15;;;;;;;9.50;5.25;;;4.30;80.00;;;;;;2081424;28;20495;-82
2021/03/05 00:55:16;;;;;;;9.00;5.20;;;4.30;80.00;;;;;;2081423;28;20037;-81
2021/03/05 00:56:17;;;;;;;7.80;4.85;;;4.30;80.00;;;;;;2072127;28;20493;-82
2021/03/05 00:57:18;;;;;;;8.27;5.22;;;4.30;80.00;;;;;;2064184;28;20018;-82
2021/03/05 00:58:19;;;;;;;8.48;4.95;;;4.30;80.00;;;;;;2063274;28;20173;-81
2021/03/05 00:59:19;;;;;;;8.02;4.97;;;4.20;80.00;;;;;;2071457;28;20050;-82
2021/03/05 01:00:20;;;;;;;8.55;4.90;;;4.20;80.00;;;;;;2071889;28;20066;-82
2021/03/05 01:01:21;;;;;;;8.18;5.00;;;4.20;80.00;;;;;;2064271;28;20038;-82
2021/03/05 01:02:22;;;;;;;6.93;4.53;;;4.20;80.00;;;;;;2071403;28;20030;-81
2021/03/05 01:03:22;;;;;;;7.47;4.57;;;4.20;80.00;;;;;;2064052;28;20061;-82
2021/03/05 01:04:23;;;;;;;8.55;4.90;;;4.20;80.00;;;;;;2064224;28;20041;-82
2021/03/05 01:05:24;;;;;;;7.72;5.10;;;4.10;80.00;;;;;;2070468;28;20427;-82
2021/03/05 01:06:25;;;;;;;8.15;4.93;;;4.10;80.00;;;;;;2072378;28;20459;-82
2021/03/05 01:07:25;;;;;;;7.70;5.32;;;4.10;80.10;;;;;;2083380;28;20059;-82
2021/03/05 01:08:26;;;;;;;7.97;5.13;;;4.10;80.10;;;;;;2073506;28;20068;-81
2021/03/05 01:09:26;;;;;;;8.60;5.07;;;4.00;80.10;;;;;;2069433;28;20033;-82
2021/03/05 01:10:27;;;;;;;8.00;5.07;;;4.00;80.20;;;;;;2065517;28;20030;-82
2021/03/05 01:11:28;;;;;;;8.57;5.22;;;3.90;80.20;;;;;;2064959;28;20562;-82
2021/03/05 01:12:29;;;;;;;9.18;4.90;;;3.90;80.30;;;;;;2080578;28;20029;-82
2021/03/05 01:13:30;;;;;;;7.35;4.80;;;3.90;80.30;;;;;;2088816;28;20036;-82
2021/03/05 01:14:30;;;;;;;8.13;4.97;;;3.80;80.40;;;;;;2076482;28;20293;-82
2021/03/05 01:15:31;;;;;;;7.93;4.97;;;3.80;80.40;;;;;;2072101;28;20480;-82
2021/03/05 01:16:32;;;;;;;7.93;4.78;;;3.80;80.40;;;;;;2056334;28;20042;-82
2021/03/05 01:17:32;;;;;;;9.52;5.15;;;3.80;80.50;;;;;;2064243;28;20109;-82
2021/03/05 01:18:33;;;;;;;8.00;4.97;;;3.70;80.50;;;;;;2076311;28;20035;-82
2021/03/05 01:19:34;;;;;;;8.23;5.15;;;3.70;80.50;;;;;;2064604;28;20035;-81
2021/03/05 01:20:35;;;;;;;11.45;5.53;;;3.70;80.60;;;;;;2064137;28;20413;-82
2021/03/05 01:21:36;;;;;;;7.30;4.88;;;3.70;80.60;;;;;;2070667;28;20169;-82
2021/03/05 01:22:37;;;;;;;9.05;4.88;;;3.60;80.60;;;;;;2057284;28;20455;-82
2021/03/05 01:23:37;;;;;;;8.68;5.10;;;3.60;80.70;;;;;;2055894;28;20035;-82
2021/03/05 01:24:38;;;;;;;8.18;5.28;;;3.60;80.70;;;;;;2080375;28;20025;-82
2021/03/05 01:25:39;;;;;;;7.18;4.68;;;3.60;80.80;;;;;;2072243;28;20484;-82
2021/03/05 01:26:40;;;;;;;9.32;5.22;;;3.50;80.80;;;;;;2064268;28;20053;-82
2021/03/05 01:27:41;;;;;;;7.57;4.93;;;3.50;81.40;;;;;;2063062;28;20053;-82
2021/03/05 01:28:45;;;;;;;8.35;5.05;;;3.50;80.90;;;;;;2064085;28;20396;-82
2021/03/05 01:29:46;;;;;;;8.05;4.43;;;3.40;80.90;;;;;;2071971;28;20025;-82
2021/03/05 01:30:46;;;;;;;8.55;4.90;;;3.40;81.00;;;;;;2071793;28;20026;-81
2021/03/05 01:31:47;;;;;;;8.00;4.68;;;3.40;81.00;;;;;;2061522;28;20031;-81
2021/03/05 01:32:49;;;;;;;7.97;4.65;;;3.40;81.70;;;;;;2065598;28;20053;-82
2021/03/05 01:33:49;;;;;;;8.10;4.30;;;3.40;81.20;;;;;;2074634;28;20037;-82
2021/03/05 01:34:50;;;;;;;7.55;4.55;;;3.30;81.10;;;;;;2078650;28;20029;-82
2021/03/05 01:35:51;;;;;;;7.60;4.50;;;3.30;81.10;;;;;;2078584;28;20041;-82
2021/03/05 01:36:51;;;;;;;7.30;4.60;;;3.30;81.10;;;;;;2072756;28;20033;-81
2021/03/05 01:37:53;;;;;;;6.88;4.50;;;3.30;81.20;;;;;;2072337;28;20423;-81
2021/03/05 01:38:53;;;;;;;9.20;4.28;;;3.30;81.30;;;;;;2073370;28;20022;-82
2021/03/05 01:39:54;;;;;;;8.00;4.90;;;3.30;82.00;;;;;;2065659;28;20027;-82
2021/03/05 01:40:54;;;;;;;7.93;4.97;;;3.20;81.30;;;;;;2065849;28;20050;-81
2021/03/05 01:41:55;;;;;;;9.23;4.40;;;3.20;81.30;;;;;;2073367;28;20411;-82
2021/03/05 01:42:56;;;;;;;8.73;4.95;;;3.20;81.40;;;;;;2073874;28;20120;-82
2021/03/05 01:43:57;;;;;;;7.95;4.43;;;3.20;81.40;;;;;;2077967;28;20041;-81
2021/03/05 01:44:57;;;;;;;6.63;4.20;;;3.20;81.50;;;;;;2080967;28;20017;-82
2021/03/05 01:45:58;;;;;;;7.53;4.45;;;3.20;81.50;;;;;;2080387;28;20041;-81
2021/03/05 01:46:59;;;;;;;6.97;4.13;;;3.20;81.60;;;;;;2073866;28;20026;-82
2021/03/05 01:48:08;;;;;;;6.90;4.53;;;3.10;81.60;;;;;;2079924;28;20123;-82
2021/03/05 01:49:10;;;;;;;9.07;4.70;;;3.10;81.70;;;;;;2081613;28;20030;-82
2021/03/05 01:50:31;;;;;;;6.70;4.38;;;3.10;81.70;;;;;;2073695;28;20061;-82
2021/03/05 01:51:34;;;;;;;7.78;4.50;;;3.00;81.70;;;;;;2075329;28;20033;-81
2021/03/05 01:52:35;;;;;;;8.13;5.00;;;3.00;81.70;;;;;;2082023;28;20472;-82
2021/03/05 01:53:36;;;;;;;7.50;4.65;;;3.00;81.80;;;;;;2073078;28;20121;-82
2021/03/05 01:54:37;;;;;;;6.88;4.30;;;3.00;81.80;;;;;;2063540;28;20018;-82
2021/03/05 01:55:37;;;;;;;8.00;4.55;;;3.00;81.90;;;;;;2073542;28;20493;-82
2021/03/05 01:56:42;;;;;;;8.90;5.20;;;2.90;81.90;;;;;;2072643;28;20125;-82
2021/03/05 01:57:43;;;;;;;8.85;5.20;;;2.90;81.90;;;;;;2073781;28;20022;-82
2021/03/05 01:58:43;;;;;;;9.07;4.88;;;2.90;82.00;;;;;;2081068;28;20387;-82
2021/03/05 01:59:44;;;;;;;9.75;5.25;;;2.90;82.10;;;;;;2081450;28;20034;-82
2021/03/05 02:01:01;;;;;;;9.07;5.05;;;2.80;82.10;;;;;;2077269;28;20058;-81
2021/03/05 02:02:09;;;;;;;10.02;5.25;;;2.80;82.20;;;;;;2073806;28;20026;-82
2021/03/05 02:03:10;;;;;;;7.97;5.18;;;2.80;82.30;;;;;;2073566;28;20041;-81
2021/03/05 02:04:12;;;;;;;10.35;5.63;;;2.80;82.30;;;;;;2064028;28;20022;-81
2021/03/05 02:05:13;;;;;;;10.02;5.22;;;2.80;82.40;;;;;;2065322;28;20488;-81
2021/03/05 02:06:14;;;;;;;10.57;5.38;;;2.70;82.40;;;;;;2071987;28;20026;-81
2021/03/05 02:07:14;;;;;;;9.13;5.38;;;2.70;82.50;;;;;;2075825;28;20491;-81
2021/03/05 02:08:15;;;;;;;8.82;5.15;;;2.70;83.20;;;;;;2080397;28;20096;-81
2021/03/05 02:09:16;;;;;;;8.15;5.22;;;2.70;82.60;;;;;;2081259;28;20415;-81
2021/03/05 02:10:17;;;;;;;8.95;5.30;;;2.60;83.20;;;;;;2073257;28;20030;-82
2021/03/05 02:11:25;;;;;;;9.27;5.60;;;2.70;82.80;;;;;;2073544;28;20030;-81
2021/03/05 02:12:26;;;;;;;9.02;5.20;;;2.60;82.80;;;;;;2080731;28;20563;-81
2021/03/05 02:13:27;;;;;;;9.05;5.20;;;2.60;82.80;;;;;;2071409;28;20061;-81
2021/03/05 02:14:28;;;;;;;9.23;5.35;;;2.60;82.80;;;;;;2064864;28;20026;-81
2021/03/05 02:15:29;;;;;;;10.57;6.15;;;2.60;82.90;;;;;;2072419;28;20163;-82
2021/03/05 02:16:46;;;;;;;9.55;4.88;;;2.60;83.50;;;;;;2071768;28;20557;-81
2021/03/05 02:18:15;;;;;;;7.35;4.78;;;2.60;82.90;;;;;;2066938;28;20031;-81
2021/03/05 02:19:49;;;;;;;9.07;5.35;;;2.60;83.10;;;;;;2073865;28;20145;-81
2021/03/05 02:21:02;;;;;;;8.23;4.53;;;2.50;82.90;;;;;;2072891;28;20050;-81
2021/03/05 02:22:19;;;;;;;7.70;4.85;;;2.50;82.80;;;;;;2075992;28;20116;-81
2021/03/05 02:23:39;;;;;;;9.63;4.70;;;2.50;82.80;;;;;;2075385;28;20026;-81
2021/03/05 02:25:09;;;;;;;7.28;4.45;;;2.50;82.90;;;;;;2078618;28;20084;-81
2021/03/05 02:26:21;;;;;;;8.30;4.28;;;2.50;82.90;;;;;;2077241;28;20475;-81
2021/03/05 02:27:36;;;;;;;8.07;4.25;;;2.40;82.90;;;;;;2075288;28;20135;-81
2021/03/05 02:29:14;;;;;;;8.52;5.03;;;2.40;82.90;;;;;;2079541;28;20550;-81
2021/03/05 02:30:33;;;;;;;7.45;4.80;;;2.40;83.00;;;;;;2076658;28;20484;-81
2021/03/05 02:31:47;;;;;;;8.25;4.63;;;2.40;83.00;;;;;;2079079;28;20026;-82
2021/03/05 02:32:54;;;;;;;8.07;4.55;;;2.40;83.10;;;;;;2082115;28;20028;-82
2021/03/05 02:34:20;;;;;;;8.68;5.22;;;2.30;83.10;;;;;;2080383;28;20084;-81
2021/03/05 02:35:25;;;;;;;9.15;4.80;;;2.30;83.10;;;;;;2078744;28;20083;-81
2021/03/05 02:36:32;;;;;;;8.88;4.65;;;2.30;83.20;;;;;;2071668;28;20377;-81
2021/03/05 02:37:36;;;;;;;7.45;4.40;;;2.30;83.20;;;;;;2070637;28;20460;-81
2021/03/05 02:38:41;;;;;;;8.32;5.40;;;2.30;83.30;;;;;;2072869;28;20116;-81
2021/03/05 02:39:59;;;;;;;9.70;5.07;;;2.30;83.40;;;;;;2064823;28;20373;-82
2021/03/05 02:41:00;;;;;;;9.18;5.05;;;2.20;83.40;;;;;;2068339;28;20531;-81
2021/03/05 02:42:06;;;;;;;8.00;4.88;;;2.20;83.50;;;;;;2072850;28;20022;-81
2021/03/05 02:43:10;;;;;;;7.93;4.90;;;2.20;83.50;;;;;;2073298;28;20464;-81
2021/03/05 02:44:20;;;;;;;8.65;4.90;;;2.20;83.50;;;;;;2078760;28;20082;-81
2021/03/05 02:45:23;;;;;;;7.70;4.80;;;2.20;83.60;;;;;;2081354;28;20440;-81
2021/03/05 02:46:25;;;;;;;10.57;5.50;;;2.20;83.60;;;;;;2072483;28;20038;-81
2021/03/05 02:47:31;;;;;;;9.70;5.30;;;2.20;83.70;;;;;;2071687;28;20080;-81
2021/03/05 02:48:40;;;;;;;9.38;5.72;;;2.10;83.80;;;;;;2071793;28;20160;-81
2021/03/05 02:49:44;;;;;;;10.35;6.05;;;2.10;83.80;;;;;;2074041;28;20028;-81
2021/03/05 02:50:49;;;;;;;10.13;5.72;;;2.10;83.90;;;;;;2073002;28;20029;-81
2021/03/05 02:51:51;;;;;;;7.75;5.15;;;2.10;84.00;;;;;;2073661;28;20025;-81
2021/03/05 02:52:55;;;;;;;9.88;5.45;;;2.10;84.00;;;;;;2072959;28;20041;-81
2021/03/05 02:53:58;;;;;;;8.77;5.28;;;2.00;84.10;;;;;;2073322;28;20434;-82
2021/03/05 02:55:03;;;;;;;10.05;5.30;;;2.00;84.10;;;;;;2072956;28;20030;-82
2021/03/05 02:56:11;;;;;;;9.07;5.57;;;2.00;84.10;;;;;;2080817;28;20029;-81
2021/03/05 02:57:16;;;;;;;9.15;5.47;;;2.00;84.20;;;;;;2081579;28;20411;-82
2021/03/05 02:58:19;;;;;;;10.77;5.80;;;2.00;84.20;;;;;;2078997;28;20030;-81
2021/03/05 02:59:22;;;;;;;9.00;5.45;;;2.00;84.30;;;;;;2078552;28;20028;-81
2021/03/05 03:00:25;;;;;;;8.90;5.25;;;2.00;84.40;;;;;;2080975;28;20458;-82
2021/03/05 03:01:26;;;;;;;8.40;5.30;;;2.00;84.40;;;;;;2081415;28;20177;-82
2021/03/05 03:02:28;;;;;;;10.07;5.32;;;2.00;84.40;;;;;;2080658;28;20083;-82
2021/03/05 03:03:29;;;;;;;7.93;5.00;;;2.00;84.50;;;;;;2069435;28;20489;-82
2021/03/05 03:04:30;;;;;;;9.95;5.55;;;1.90;84.50;;;;;;2065081;28;20459;-82
2021/03/05 03:05:31;;;;;;;9.55;5.72;;;2.00;84.50;;;;;;2052601;28;20123;-82
2021/03/05 03:06:33;;;;;;;9.43;5.25;;;1.90;84.50;;;;;;2063960;28;20034;-82
2021/03/05 03:07:35;;;;;;;8.77;4.80;;;1.90;84.50;;;;;;2071266;28;20026;-82
2021/03/05 03:08:37;;;;;;;8.52;5.20;;;1.90;84.50;;;;;;2072648;28;20038;-82
2021/03/05 03:09:39;;;;;;;9.70;5.22;;;1.90;84.60;;;;;;2057085;28;20489;-82
2021/03/05 03:10:40;;;;;;;8.27;5.20;;;1.90;84.60;;;;;;2065283;28;20037;-82
2021/03/05 03:11:44;;;;;;;8.68;5.60;;;1.90;84.60;;;;;;2073013;28;20591;-82
2021/03/05 03:12:45;;;;;;;9.38;5.25;;;1.90;84.70;;;;;;2066559;28;20523;-81
2021/03/05 03:13:47;;;;;;;9.60;5.43;;;1.90;84.60;;;;;;2055833;28;20075;-82
2021/03/05 03:14:49;;;;;;;10.80;5.55;;;1.90;84.60;;;;;;2064830;28;20026;-82
2021/03/05 03:15:50;;;;;;;10.43;4.95;;;1.90;85.20;;;;;;2069224;28;20022;-82
2021/03/05 03:16:52;;;;;;;8.68;5.15;;;1.80;84.60;;;;;;2080742;28;22540;-82
2021/03/05 03:17:55;;;;;;;11.65;5.63;;;1.90;84.70;;;;;;2081060;28;20125;-82
2021/03/05 03:18:58;;;;;;;10.15;5.72;;;1.80;84.70;;;;;;2080723;28;20038;-82
2021/03/05 03:20:00;;;;;;;10.60;5.63;;;1.90;84.70;;;;;;2080667;28;20473;-82
2021/03/05 03:21:02;;;;;;;9.88;5.60;;;1.80;85.30;;;;;;2072782;28;20038;-82
2021/03/05 03:22:04;;;;;;;8.63;5.13;;;1.80;84.80;;;;;;2072652;28;20044;-81
2021/03/05 03:23:05;;;;;;;7.72;4.88;;;1.80;84.80;;;;;;2072461;28;20042;-82
2021/03/05 03:24:08;;;;;;;8.23;5.05;;;1.80;84.80;;;;;;2063711;28;20120;-82
2021/03/05 03:25:09;;;;;;;10.55;5.88;;;1.70;84.80;;;;;;2064917;28;20058;-82
2021/03/05 03:26:10;;;;;;;9.80;5.43;;;1.80;84.90;;;;;;2072196;28;20044;-82
2021/03/05 03:27:11;;;;;;;8.55;5.18;;;1.80;84.90;;;;;;2079611;28;20550;-82
2021/03/05 03:28:12;;;;;;;8.95;4.93;;;1.80;84.90;;;;;;2070830;28;20030;-81
2021/03/05 03:29:13;;;;;;;9.20;5.25;;;1.70;84.80;;;;;;2064652;28;20041;-82
2021/03/05 03:30:15;;;;;;;10.43;5.32;;;1.70;84.80;;;;;;2064847;28;20031;-82
2021/03/05 03:31:17;;;;;;;7.85;4.80;;;1.80;84.90;;;;;;2072941;28;20033;-82
2021/03/05 03:32:18;;;;;;;10.57;5.55;;;1.70;84.80;;;;;;2081088;28;20036;-82
2021/03/05 03:33:19;;;;;;;9.45;5.80;;;1.70;84.90;;;;;;2071947;28;20080;-82
2021/03/05 03:34:23;;;;;;;8.95;5.60;;;1.70;84.90;;;;;;2064078;28;20022;-82
2021/03/05 03:35:23;;;;;;;9.30;5.63;;;1.70;84.90;;;;;;2056922;28;20046;-82
2021/03/05 03:36:25;;;;;;;10.80;5.70;;;1.70;84.90;;;;;;2064807;28;20077;-82
2021/03/05 03:37:28;;;;;;;10.13;5.35;;;1.70;84.80;;;;;;2067849;28;20416;-82
2021/03/05 03:38:31;;;;;;;8.98;5.30;;;1.70;84.80;;;;;;2073291;28;20030;-82
2021/03/05 03:39:32;;;;;;;9.27;5.47;;;1.70;84.80;;;;;;2080954;28;20021;-82
2021/03/05 03:40:35;;;;;;;10.50;5.53;;;1.70;84.80;;;;;;2089015;28;20025;-82
2021/03/05 03:41:37;;;;;;;11.30;5.55;;;1.60;84.70;;;;;;2081085;28;20033;-82
2021/03/05 03:42:39;;;;;;;9.85;5.05;;;1.70;84.80;;;;;;2071915;28;20389;-82
2021/03/05 03:43:40;;;;;;;11.07;5.72;;;1.70;84.70;;;;;;2071330;28;20053;-82
2021/03/05 03:44:40;;;;;;;11.15;5.55;;;1.60;84.70;;;;;;2079802;28;20029;-82
2021/03/05 03:45:41;;;;;;;9.05;5.13;;;1.70;84.70;;;;;;2067569;28;20117;-82
2021/03/05 03:46:50;;;;;;;9.52;5.22;;;1.70;84.60;;;;;;2062645;28;20093;-82
2021/03/05 03:47:51;;;;;;;7.38;4.47;;;1.70;84.60;;;;;;2072797;28;20520;-82
2021/03/05 03:48:58;;;;;;;9.00;4.72;;;1.60;84.50;;;;;;2073554;28;20048;-82
2021/03/05 03:50:01;;;;;;;9.00;5.13;;;1.60;84.50;;;;;;2075989;28;20072;-82
2021/03/05 03:51:04;;;;;;;9.90;5.25;;;1.60;84.40;;;;;;2072653;28;20018;-82
2021/03/05 03:52:15;;;;;;;9.75;5.07;;;1.60;84.40;;;;;;2073288;28;20029;-82
2021/03/05 03:53:20;;;;;;;;;;;1.60;84.40;;;;;;2081184;28;20034;-82
2021/03/05 03:54:21;;;;;;;8.63;4.43;;;1.60;84.30;;;;;;2080315;28;19944;-82
2021/03/05 03:55:23;;;;;;;8.02;4.55;;;1.60;84.30;;;;;;2081244;28;20033;-82
2021/03/05 03:56:27;;;;;;;7.80;4.20;;;1.60;84.20;;;;;;2072481;28;20053;-81
2021/03/05 03:57:30;;;;;;;10.15;4.60;;;1.50;84.10;;;;;;2072132;28;20033;-82
2021/03/05 03:58:31;;;;;;;8.35;4.40;;;1.50;84.10;;;;;;2071387;28;20455;-82
2021/03/05 03:59:33;;;;;;;7.82;4.07;;;1.60;84.20;;;;;;2071914;28;20030;-82
2021/03/05 04:00:35;;;;;;;7.47;4.32;;;1.50;84.10;;;;;;2067933;28;20169;-82
2021/03/05 04:01:36;;;;;;;7.80;4.47;;;1.50;84.10;;;;;;2065152;28;20030;-82
2021/03/05 04:02:38;;;;;;;7.85;4.28;;;1.50;84.10;;;;;;2069449;28;20539;-82
2021/03/05 04:03:45;;;;;;;7.88;4.03;;;1.50;84.10;;;;;;2072937;28;20036;-81
2021/03/05 04:04:47;;;;;;;5.78;3.80;;;1.50;84.80;;;;;;2072884;28;20076;-82
2021/03/05 04:05:50;;;;;;;8.93;4.45;;;1.50;84.10;;;;;;2072859;28;20018;-82
2021/03/05 04:06:52;;;;;;;8.45;3.83;;;1.50;84.10;;;;;;2078438;28;20038;-82
2021/03/05 04:07:56;;;;;;;8.10;4.03;;;1.40;84.70;;;;;;2081383;28;20019;-82
2021/03/05 04:08:58;;;;;;;7.40;4.07;;;1.50;84.10;;;;;;2079609;28;20037;-82
2021/03/05 04:10:01;;;;;;;6.88;3.90;;;1.50;84.10;;;;;;2083124;28;20056;-82
2021/03/05 04:11:02;;;;;;;6.80;3.47;;;1.40;84.00;;;;;;2080760;28;20104;-82
2021/03/05 04:12:05;;;;;;;7.72;3.70;;;1.40;84.60;;;;;;2072261;28;20057;-81
2021/03/05 04:13:06;;;;;;;7.10;3.70;;;1.40;84.00;;;;;;2079512;28;20034;-81
2021/03/05 04:14:08;;;;;;;8.00;3.88;;;1.40;84.00;;;;;;2071295;28;20037;-82
2021/03/05 04:15:09;;;;;;;8.02;4.13;;;1.40;83.90;;;;;;2072754;28;20402;-82
2021/03/05 04:16:10;;;;;;;8.80;4.30;;;1.40;83.90;;;;;;2072197;28;20080;-81
2021/03/05 04:17:11;;;;;;;9.40;4.18;;;1.40;83.90;;;;;;2059734;28;20682;-82
2021/03/05 04:18:13;;;;;;;8.43;4.05;;;1.40;83.90;;;;;;2056360;28;20069;-81
2021/03/05 04:19:15;;;;;;;8.05;4.35;;;1.40;83.90;;;;;;2048596;28;20031;-81
2021/03/05 04:20:19;;;;;;;6.88;3.53;;;1.30;83.90;;;;;;2060397;28;20022;-81
2021/03/05 04:21:22;;;;;;;8.05;4.07;;;1.30;83.90;;;;;;2072639;28;20365;-82
2021/03/05 04:22:23;;;;;;;9.45;4.60;;;1.30;83.90;;;;;;2080207;28;20065;-82
2021/03/05 04:23:24;;;;;;;6.97;3.88;;;1.30;83.90;;;;;;2079448;28;20025;-82
2021/03/05 04:24:25;;;;;;;8.98;4.30;;;1.30;83.80;;;;;;2080689;28;20498;-82
2021/03/05 04:25:25;;;;;;;7.32;3.85;;;1.30;83.90;;;;;;2081041;28;20140;-82
2021/03/05 04:26:26;;;;;;;7.60;4.07;;;1.30;83.80;;;;;;2074278;28;20116;-82
2021/03/05 04:27:27;;;;;;;7.50;4.20;;;1.30;83.80;;;;;;2065501;28;20372;-82
2021/03/05 04:28:28;;;;;;;7.78;4.15;;;1.30;83.80;;;;;;2074417;28;20044;-82
2021/03/05 04:29:29;;;;;;;6.90;3.78;;;1.30;83.80;;;;;;2077465;28;20022;-83
2021/03/05 04:30:29;;;;;;;7.85;3.88;;;1.30;84.00;;;;;;2070412;28;20517;-82
2021/03/05 04:31:30;;;;;;;7.43;4.28;;;1.20;83.80;;;;;;2067841;28;20023;-81
2021/03/05 04:32:31;;;;;;;8.30;4.13;;;1.30;83.90;;;;;;2067209;28;20048;-81
2021/03/05 04:33:31;;;;;;;7.85;4.20;;;1.20;83.90;;;;;;2058310;28;20552;-82
2021/03/05 04:34:33;;;;;;;6.75;3.97;;;1.20;83.90;;;;;;2058105;28;20526;-82
2021/03/05 04:35:34;;;;;;;7.05;3.95;;;1.20;83.90;;;;;;2077199;28;20526;-82
2021/03/05 04:36:35;;;;;;;6.82;3.97;;;1.20;83.90;;;;;;2073472;28;20026;-82
2021/03/05 04:37:36;;;;;;;7.68;4.03;;;1.20;83.90;;;;;;2064545;28;20031;-81
2021/03/05 04:38:37;;;;;;;7.70;4.20;;;1.20;83.90;;;;;;2064771;28;20109;-82
2021/03/05 04:39:37;;;;;;;6.80;4.00;;;1.20;83.90;;;;;;2074676;28;20072;-81
2021/03/05 04:40:38;;;;;;;7.13;4.05;;;1.20;84.00;;;;;;2072909;28;20202;-81
2021/03/05 04:41:39;;;;;;;7.32;4.10;;;1.20;83.90;;;;;;2082417;28;20408;-80
2021/03/05 04:42:40;;;;;;;7.93;4.07;;;1.20;83.90;;;;;;2080294;28;20029;-80
2021/03/05 04:43:40;;;;;;;7.95;3.85;;;1.20;84.50;;;;;;2065437;28;20035;-81
2021/03/05 04:44:41;;;;;;;6.68;3.88;;;1.20;83.90;;;;;;2064796;28;20037;-81
2021/03/05 04:45:42;;;;;;;8.02;4.05;;;1.20;84.00;;;;;;2064965;28;20085;-80
2021/03/05 04:46:42;;;;;;;8.15;4.43;;;1.20;84.00;;;;;;2071562;28;20523;-80
2021/03/05 04:47:43;;;;;;;7.38;4.28;;;1.10;83.90;;;;;;2070784;28;20026;-79
2021/03/05 04:48:45;;;;;;;7.10;3.90;;;1.10;84.00;;;;;;2063469;28;20433;-80
2021/03/05 04:49:45;;;;;;;8.65;4.60;;;1.10;84.00;;;;;;2072690;28;20488;-80
2021/03/05 04:50:46;;;;;;;8.05;4.20;;;1.10;84.00;;;;;;2072201;28;20025;-80
2021/03/05 04:51:46;;;;;;;6.70;3.80;;;1.10;84.10;;;;;;2072557;28;20104;-80
2021/03/05 04:52:47;;;;;;;7.78;4.57;;;1.10;84.10;;;;;;2075091;28;20484;-80
2021/03/05 04:53:48;;;;;;;8.40;4.25;;;1.10;84.10;;;;;;2072289;28;20030;-80
2021/03/05 04:54:48;;;;;;;8.52;4.18;;;1.10;84.10;;;;;;2055690;28;20035;-80
2021/03/05 04:55:49;;;;;;;8.15;4.30;;;1.10;84.20;;;;;;2056206;28;20019;-80
2021/03/05 04:56:49;;;;;;;8.32;4.22;;;1.10;84.20;;;;;;2064417;28;20595;-80
2021/03/05 04:57:50;;;;;;;7.53;4.38;;;1.00;84.20;;;;;;2071392;28;20136;-80
2021/03/05 04:58:51;;;;;;;7.50;4.25;;;1.00;84.20;;;;;;2079016;28;20506;-80
2021/03/05 04:59:51;;;;;;;8.05;4.07;;;1.00;84.30;;;;;;2071896;28;20030;-80
2021/03/05 05:00:52;;;;;;;8.15;3.80;;;1.00;84.30;;;;;;2064234;28;20030;-80
2021/03/05 05:01:53;;;;;;;7.60;4.20;;;1.00;84.40;;;;;;2072987;28;20022;-79
2021/03/05 05:02:54;;;;;;;7.35;3.75;;;1.00;84.40;;;;;;2061977;28;20046;-80
2021/03/05 05:03:54;;;;;;;8.95;4.28;;;1.00;84.40;;;;;;2052851;28;20044;-80
2021/03/05 05:04:55;;;;;;;7.72;4.25;;;1.00;84.40;;;;;;2055852;28;20031;-80
2021/03/05 05:05:55;;;;;;;8.38;4.20;;;1.00;84.40;;;;;;2057807;28;20042;-80
2021/03/05 05:06:56;;;;;;;7.40;3.58;;;1.00;84.40;;;;;;2058042;28;20031;-80
2021/03/05 05:07:57;;;;;;;8.35;4.22;;;1.00;84.40;;;;;;2056831;28;20035;-80
2021/03/05 05:08:58;;;;;;;7.25;4.00;;;1.00;84.40;;;;;;2080221;28;20496;-80
2021/03/05 05:09:58;;;;;;;8.20;3.90;;;1.00;84.30;;;;;;2080818;28;20430;-80
2021/03/05 05:10:59;;;;;;;8.48;3.72;;;1.00;84.30;;;;;;2081635;28;20030;-80
2021/03/05 05:12:01;;;;;;;8.75;3.97;;;1.00;84.20;;;;;;2081645;28;20461;-80
2021/03/05 05:13:02;;;;;;;9.48;4.40;;;1.00;84.30;;;;;;2065631;28;20485;-79
2021/03/05 05:14:03;;;;;;;6.57;3.75;;;0.90;84.10;;;;;;2069474;28;20030;-79
2021/03/05 05:15:05;;;;;;;6.75;3.88;;;0.90;84.10;;;;;;2073837;28;20044;-80
2021/03/05 05:16:05;;;;;;;6.20;3.60;;;1.00;84.20;;;;;;2065561;28;20057;-80
2021/03/05 05:17:06;;;;;;;6.35;3.47;;;0.90;84.10;;;;;;2064777;28;20578;-80
2021/03/05 05:18:07;;;;;;;7.20;3.67;;;0.90;84.70;;;;;;2082888;28;20472;-80
2021/03/05 05:19:08;;;;;;;8.48;4.03;;;0.90;84.10;;;;;;2073620;28;20034;-80
2021/03/05 05:20:10;;;;;;;7.10;3.50;;;0.90;84.70;;;;;;2073538;28;20018;-80
2021/03/05 05:21:10;;;;;;;7.63;3.67;;;0.90;84.10;;;;;;2073152;28;20554;-79
2021/03/05 05:22:11;;;;;;;6.88;3.45;;;0.90;84.10;;;;;;2065896;28;20030;-80
2021/03/05 05:23:11;;;;;;;7.97;3.30;;;0.90;84.10;;;;;;2070311;28;20054;-79
2021/03/05 05:24:12;;;;;;;5.63;3.10;;;0.90;84.10;;;;;;2073676;28;20037;-80
2021/03/05 05:25:13;;;;;;;7.03;3.60;;;0.90;84.10;;;;;;2081492;28;20116;-79
2021/03/05 05:26:15;;;;;;;6.05;2.90;;;0.90;84.00;;;;;;2081941;28;20048;-80
2021/03/05 05:27:16;;;;;;;7.93;3.40;;;0.80;84.60;;;;;;2081516;28;20036;-80
2021/03/05 05:28:16;;;;;;;6.32;3.28;;;0.80;84.00;;;;;;2082827;28;20021;-79
2021/03/05 05:29:17;;;;;;;6.13;3.03;;;0.90;84.00;;;;;;2083173;28;20410;-80